createdAt,value
2019-03-17T00:02:43.276Z,65.50
2019-03-17T00:06:46.361Z,65.40
2019-03-17T00:10:52.407Z,65.40
2019-03-17T00:15:04.735Z,65.10
2019-03-17T00:18:59.240Z,65.00
2019-03-17T00:23:02.242Z,65.00
2019-03-17T00:27:05.241Z,64.80
2019-03-17T00:31:08.233Z,64.70
2019-03-17T00:35:11.226Z,64.50
2019-03-17T00:39:15.256Z,64.30
2019-03-17T00:43:24.292Z,64.40
2019-03-17T00:47:28.230Z,64.60
2019-03-17T00:51:31.239Z,64.30
2019-03-17T00:55:34.239Z,64.20
2019-03-17T00:59:37.236Z,64.30
2019-03-17T01:03:40.246Z,63.90
2019-03-17T01:07:43.250Z,64.10
2019-03-17T01:11:46.238Z,63.90
2019-03-17T01:15:49.234Z,64.50
2019-03-17T01:19:52.226Z,64.40
2019-03-17T01:23:55.231Z,64.10
2019-03-17T01:27:58.227Z,64.10
2019-03-17T01:32:01.227Z,64.00
2019-03-17T01:36:04.238Z,64.20
2019-03-17T01:40:08.547Z,63.90
2019-03-17T01:44:11.551Z,63.60
2019-03-17T01:48:17.663Z,63.50
2019-03-17T01:52:22.683Z,63.50
2019-03-17T01:56:25.686Z,63.30
2019-03-17T02:00:28.776Z,63.10
2019-03-17T02:04:31.770Z,63.40
2019-03-17T02:08:34.771Z,63.20
2019-03-17T02:12:37.768Z,63.10
2019-03-17T02:16:40.861Z,62.90
2019-03-17T02:20:43.957Z,62.90
2019-03-17T02:24:47.063Z,62.50
2019-03-17T02:28:50.058Z,62.30
2019-03-17T02:32:53.160Z,62.10
2019-03-17T02:36:56.152Z,62.00
2019-03-17T02:40:59.178Z,61.90
2019-03-17T02:45:03.958Z,61.90
2019-03-17T02:49:10.855Z,61.90
2019-03-17T02:53:13.856Z,62.00
2019-03-17T02:57:16.863Z,62.00
2019-03-17T03:01:20.876Z,62.20
2019-03-17T03:05:23.885Z,61.90
2019-03-17T03:09:26.881Z,62.10
2019-03-17T03:13:29.885Z,62.30
2019-03-17T03:17:32.872Z,62.30
2019-03-17T03:21:35.887Z,62.60
2019-03-17T03:25:38.880Z,63.00
2019-03-17T03:29:41.871Z,63.10
2019-03-17T03:33:44.956Z,63.30
2019-03-17T03:37:48.052Z,63.30
2019-03-17T03:41:51.044Z,63.40
2019-03-17T03:45:54.132Z,63.70
2019-03-17T03:49:57.731Z,64.20
2019-03-17T03:54:00.762Z,63.30
2019-03-17T03:58:03.739Z,63.70
2019-03-17T04:02:06.736Z,63.60
2019-03-17T04:06:25.264Z,63.80
2019-03-17T04:10:14.686Z,63.80
2019-03-17T04:14:17.692Z,63.90
2019-03-17T04:18:20.761Z,63.90
2019-03-17T04:22:23.760Z,63.90
2019-03-17T04:26:26.868Z,64.00
2019-03-17T04:30:30.001Z,64.00
2019-03-17T04:34:32.970Z,64.10
2019-03-17T04:38:35.967Z,64.00
2019-03-17T04:42:38.968Z,64.10
2019-03-17T04:46:41.959Z,64.30
2019-03-17T04:50:46.118Z,64.20
2019-03-17T04:54:49.135Z,63.80
2019-03-17T04:58:52.119Z,64.40
2019-03-17T05:02:55.107Z,64.00
2019-03-17T05:06:58.107Z,64.00
2019-03-17T05:11:01.103Z,63.80
2019-03-17T05:15:07.101Z,63.40
2019-03-17T05:19:10.103Z,63.80
2019-03-17T05:23:13.296Z,63.60
2019-03-17T05:27:16.401Z,63.90
2019-03-17T05:31:19.396Z,63.90
2019-03-17T05:35:22.471Z,63.90
2019-03-17T05:39:25.487Z,63.70
2019-03-17T05:43:28.558Z,63.80
2019-03-17T05:51:25.689Z,63.70
2019-03-17T05:55:28.748Z,63.20
2019-03-17T05:59:31.744Z,62.90
2019-03-17T06:03:34.808Z,62.40
2019-03-17T06:07:37.840Z,62.50
2019-03-17T06:11:40.917Z,62.00
2019-03-17T06:15:44.015Z,61.50
2019-03-17T06:19:47.021Z,61.00
2019-03-17T06:23:50.103Z,60.70
2019-03-17T06:27:53.119Z,60.00
2019-03-17T06:31:56.132Z,59.60
2019-03-17T06:35:59.136Z,59.10
2019-03-17T06:40:05.444Z,59.00
2019-03-17T06:44:08.447Z,59.20
2019-03-17T06:48:11.474Z,58.90
2019-03-17T06:52:15.304Z,58.70
2019-03-17T06:56:18.316Z,59.00
2019-03-17T07:00:21.334Z,59.20
2019-03-17T07:04:24.457Z,58.80
2019-03-17T07:08:27.588Z,59.20
2019-03-17T07:12:30.587Z,59.40
2019-03-17T07:16:33.608Z,59.40
2019-03-17T07:20:36.611Z,59.50
2019-03-17T07:24:39.636Z,59.60
2019-03-17T07:28:42.653Z,58.20
2019-03-17T07:32:45.667Z,56.00
2019-03-17T07:36:48.673Z,53.40
2019-03-17T07:40:51.683Z,51.80
2019-03-17T07:44:54.688Z,50.80
2019-03-17T07:48:58.260Z,50.10
2019-03-17T07:53:02.103Z,49.30
2019-03-17T07:57:05.185Z,48.30
2019-03-17T08:01:08.197Z,46.70
2019-03-17T08:05:11.409Z,46.30
2019-03-17T08:09:14.467Z,45.00
2019-03-17T08:13:17.553Z,46.70
2019-03-17T08:17:20.570Z,45.40
2019-03-17T08:21:23.566Z,47.80
2019-03-17T08:25:26.681Z,48.40
2019-03-17T08:29:30.692Z,47.20
2019-03-17T08:33:33.686Z,45.80
2019-03-17T08:37:37.702Z,44.20
2019-03-17T08:41:41.702Z,43.20
2019-03-17T08:45:44.734Z,43.30
2019-03-17T08:49:47.724Z,41.80
2019-03-17T08:53:50.830Z,39.80
2019-03-17T08:57:53.829Z,40.10
2019-03-17T09:01:56.926Z,39.70
2019-03-17T09:05:59.923Z,42.30
2019-03-17T09:10:06.846Z,44.60
2019-03-17T09:14:09.843Z,46.20
2019-03-17T09:18:12.892Z,48.20
2019-03-17T09:22:15.895Z,48.50
2019-03-17T09:26:18.914Z,50.70
2019-03-17T09:30:21.920Z,51.30
2019-03-17T09:34:24.941Z,52.20
2019-03-17T09:38:27.943Z,53.00
2019-03-17T09:42:30.969Z,53.20
2019-03-17T09:46:33.967Z,53.00
2019-03-17T09:50:36.972Z,53.50
2019-03-17T09:54:42.445Z,54.10
2019-03-17T09:58:45.761Z,54.00
2019-03-17T10:02:48.978Z,53.40
2019-03-17T10:06:52.006Z,55.20
2019-03-17T10:10:55.017Z,57.00
2019-03-17T10:14:58.058Z,58.60
2019-03-17T10:19:01.062Z,60.00
2019-03-17T10:23:05.180Z,60.50
2019-03-17T10:27:08.186Z,61.60
2019-03-17T10:31:11.187Z,61.50
2019-03-17T10:35:14.217Z,62.60
2019-03-17T10:39:17.231Z,62.60
2019-03-17T10:43:20.234Z,64.00
2019-03-17T10:47:23.277Z,64.70
2019-03-17T10:51:26.265Z,65.40
2019-03-17T10:55:30.485Z,66.10
2019-03-17T10:59:33.505Z,66.50
2019-03-17T11:03:36.518Z,66.90
2019-03-17T11:07:39.529Z,68.10
2019-03-17T11:11:42.549Z,69.00
2019-03-17T11:15:45.554Z,69.70
2019-03-17T11:19:48.599Z,70.20
2019-03-17T11:23:52.654Z,71.90
2019-03-17T11:27:55.638Z,72.70
2019-03-17T11:31:58.638Z,74.10
2019-03-17T11:36:01.652Z,75.50
2019-03-17T11:40:14.974Z,75.00
2019-03-17T11:44:17.983Z,75.40
2019-03-17T11:48:21.053Z,74.80
2019-03-17T11:52:24.126Z,75.10
2019-03-17T11:56:29.034Z,74.80
2019-03-17T12:00:33.043Z,79.70
2019-03-17T12:04:36.059Z,73.10
2019-03-17T12:08:39.050Z,68.80
2019-03-17T12:12:42.069Z,70.30
2019-03-17T12:16:45.067Z,71.70
2019-03-17T12:20:48.076Z,72.60
2019-03-17T12:24:51.073Z,72.60
2019-03-17T12:28:54.098Z,72.20
2019-03-17T12:32:57.196Z,72.70
2019-03-17T12:37:00.206Z,73.30
2019-03-17T12:41:03.213Z,70.80
2019-03-17T12:45:07.407Z,67.60
2019-03-17T12:49:10.404Z,70.10
2019-03-17T12:53:13.398Z,69.50
2019-03-17T12:57:17.360Z,68.60
2019-03-17T13:01:20.392Z,68.90
2019-03-17T13:05:25.178Z,67.70
2019-03-17T13:09:28.190Z,66.50
2019-03-17T13:13:31.202Z,67.10
2019-03-17T13:17:34.202Z,66.70
2019-03-17T13:21:37.273Z,65.60
2019-03-17T13:25:40.330Z,65.90
2019-03-17T13:29:43.334Z,66.10
2019-03-17T13:33:46.367Z,66.90
2019-03-17T13:37:49.334Z,66.10
2019-03-17T13:41:52.342Z,65.60
2019-03-17T13:45:55.352Z,66.40
2019-03-17T13:49:58.330Z,66.20
2019-03-17T13:54:01.349Z,65.40
2019-03-17T13:58:08.305Z,65.40
2019-03-17T14:02:11.302Z,65.20
2019-03-17T14:06:14.290Z,65.00
2019-03-17T14:10:17.732Z,64.90
2019-03-17T14:14:20.763Z,63.40
2019-03-17T14:18:23.776Z,64.50
2019-03-17T14:22:26.838Z,63.80
2019-03-17T14:26:29.838Z,63.70
2019-03-17T14:30:32.839Z,63.30
2019-03-17T14:34:35.858Z,62.90
2019-03-17T14:38:38.844Z,79.70
2019-03-17T14:42:43.743Z,61.80
2019-03-17T14:46:46.763Z,61.80
2019-03-17T14:50:49.767Z,62.50
2019-03-17T14:54:52.777Z,62.50
2019-03-17T14:58:56.831Z,63.20
2019-03-17T15:02:59.839Z,62.10
2019-03-17T15:07:02.938Z,60.80
2019-03-17T15:11:06.327Z,61.30
2019-03-17T15:15:13.412Z,61.70
2019-03-17T15:19:16.406Z,62.50
2019-03-17T15:23:19.406Z,62.00
2019-03-17T15:27:22.407Z,61.60
2019-03-17T15:31:25.415Z,62.50
2019-03-17T15:35:28.432Z,63.00
2019-03-17T15:39:31.464Z,63.70
2019-03-17T15:43:34.451Z,64.80
2019-03-17T15:47:37.455Z,66.20
2019-03-17T15:51:40.447Z,63.90
2019-03-17T15:55:43.758Z,64.50
2019-03-17T15:59:49.018Z,65.00
2019-03-17T16:03:52.321Z,64.60
2019-03-17T16:07:55.340Z,65.10
2019-03-17T16:11:58.327Z,65.10
2019-03-17T16:16:01.351Z,65.60
2019-03-17T16:20:07.981Z,65.40
2019-03-17T16:24:11.068Z,64.90
2019-03-17T16:28:14.084Z,65.10
2019-03-17T16:32:17.092Z,65.00
2019-03-17T16:36:20.556Z,63.80
2019-03-17T16:40:33.518Z,63.50
2019-03-17T16:44:36.520Z,65.20
2019-03-17T16:48:39.555Z,64.80
2019-03-17T16:52:42.530Z,65.10
2019-03-17T16:56:45.540Z,66.10
2019-03-17T17:00:50.138Z,66.60
2019-03-17T17:04:53.138Z,66.30
2019-03-17T17:08:56.145Z,66.30
2019-03-17T17:12:59.133Z,66.00
2019-03-17T17:17:02.289Z,71.70
2019-03-17T17:21:05.352Z,64.70
2019-03-17T17:25:09.744Z,65.20
2019-03-17T17:29:12.760Z,65.50
2019-03-17T17:33:15.746Z,64.50
2019-03-17T17:37:18.755Z,64.10
2019-03-17T17:41:21.781Z,62.30
2019-03-17T17:45:25.024Z,62.00
2019-03-17T17:49:28.020Z,61.70
2019-03-17T17:53:31.087Z,62.40
2019-03-17T17:57:35.203Z,63.00
2019-03-17T18:01:40.270Z,63.20
2019-03-17T18:05:43.282Z,63.30
2019-03-17T18:09:46.333Z,63.80
2019-03-17T18:13:49.358Z,64.00
2019-03-17T18:17:52.409Z,64.40
2019-03-17T18:21:55.417Z,64.40
2019-03-17T18:25:58.418Z,65.10
2019-03-17T18:30:01.443Z,64.70
2019-03-17T18:34:04.547Z,66.10
2019-03-17T18:38:07.560Z,66.70
2019-03-17T18:42:10.640Z,67.50
2019-03-17T18:46:13.641Z,68.10
2019-03-17T18:50:20.637Z,68.70
2019-03-17T18:54:21.547Z,68.90
2019-03-17T18:58:24.549Z,68.30
2019-03-17T19:02:28.639Z,68.10
2019-03-17T19:06:31.632Z,68.20
2019-03-17T19:10:34.653Z,68.50
2019-03-17T19:14:37.667Z,68.40
2019-03-17T19:18:40.682Z,68.30
2019-03-17T19:22:43.693Z,68.70
2019-03-17T19:26:46.695Z,68.40
2019-03-17T19:30:49.741Z,68.40
2019-03-17T19:34:52.740Z,67.80
2019-03-17T19:38:55.783Z,68.00
2019-03-17T19:42:59.793Z,68.40
2019-03-17T19:47:02.911Z,68.60
2019-03-17T19:51:05.909Z,68.20
2019-03-17T19:55:09.565Z,69.20
2019-03-17T19:59:12.564Z,69.50
2019-03-17T20:03:16.946Z,68.70
2019-03-17T20:07:19.941Z,69.70
2019-03-17T20:11:25.555Z,69.40
2019-03-17T20:15:27.872Z,69.80
2019-03-17T20:19:30.887Z,70.40
2019-03-17T20:23:33.915Z,70.60
2019-03-17T20:27:36.940Z,70.60
2019-03-17T20:31:39.963Z,70.30
2019-03-17T20:35:42.979Z,70.40
2019-03-17T20:39:45.994Z,70.30
2019-03-17T20:43:48.983Z,70.50
2019-03-17T20:48:05.942Z,71.10
2019-03-17T20:52:09.302Z,71.30
2019-03-17T20:56:32.174Z,71.30
2019-03-17T21:00:35.181Z,71.10
2019-03-17T21:04:38.883Z,70.70
2019-03-17T21:08:41.928Z,69.70
2019-03-17T21:12:45.316Z,72.60
2019-03-17T21:16:48.320Z,75.00
2019-03-17T21:20:51.316Z,75.30
2019-03-17T21:24:54.376Z,75.40
2019-03-17T21:28:58.506Z,74.20
2019-03-17T21:33:01.527Z,74.00
2019-03-17T21:37:04.598Z,73.60
2019-03-17T21:41:08.497Z,73.50
2019-03-17T21:45:12.431Z,72.50
2019-03-17T21:49:15.450Z,72.50
2019-03-17T21:53:18.460Z,73.30
2019-03-17T21:57:21.451Z,73.60
2019-03-17T22:01:24.463Z,73.50
2019-03-17T22:05:28.326Z,73.70
2019-03-17T22:09:31.363Z,73.20
2019-03-17T22:13:34.366Z,73.00
2019-03-17T22:17:37.972Z,72.00
2019-03-17T22:21:40.964Z,71.60
2019-03-17T22:25:44.033Z,71.50
2019-03-17T22:29:47.060Z,71.40
2019-03-17T22:33:50.071Z,71.20
2019-03-17T22:37:53.060Z,71.60
2019-03-17T22:41:56.074Z,71.80
2019-03-17T22:45:59.072Z,72.60
2019-03-17T22:50:04.296Z,72.60
2019-03-17T22:54:07.291Z,72.40
2019-03-17T22:58:10.308Z,72.60
2019-03-17T23:02:13.294Z,72.00
2019-03-17T23:06:17.612Z,72.60
2019-03-17T23:10:20.597Z,72.10
2019-03-17T23:14:35.850Z,71.90
2019-03-17T23:18:28.515Z,71.70
2019-03-17T23:22:31.567Z,71.80
2019-03-17T23:26:34.558Z,71.80
2019-03-17T23:30:37.560Z,72.20
2019-03-17T23:34:40.662Z,71.60
2019-03-17T23:38:43.756Z,71.40
2019-03-17T23:42:46.780Z,71.20
2019-03-17T23:46:49.811Z,71.20
2019-03-17T23:50:52.828Z,70.80
2019-03-17T23:54:55.848Z,71.10
2019-03-17T23:58:58.866Z,71.20
